Time;durP1;ratioP1;P1;durP2;ratioP2;P2;SDS_P1;SDS_P2;PMS_P1;PMS_P2;Temp;Humidity;BMP_temperature;BMP_pressure;BME280_temperature;BME280_humidity;BME280_pressure;Samples;Min_cycle;Max_cycle;Signal;HPM_P1;HPM_P2
2022/01/31 00:01:00;;;;;;;14.70;1.85;;;4.70;99.90;;;;;;5014143;28;20486;-81
2022/01/31 00:03:26;;;;;;;16.05;1.60;;;3.80;99.90;;;;;;5037862;28;20563;-80
2022/01/31 00:05:51;;;;;;;10.52;1.70;;;3.70;99.90;;;;;;5044539;28;20069;-80
2022/01/31 00:08:22;;;;;;;11.00;2.03;;;3.70;99.90;;;;;;5040291;28;20051;-86
2022/01/31 00:10:49;;;;;;;11.88;1.80;;;3.70;99.90;;;;;;5020451;28;20052;-85
2022/01/31 00:13:57;;;;;;;8.98;2.38;;;3.70;99.90;;;;;;5030607;28;20055;-86
2022/01/31 00:16:09;;;;;;;12.82;2.90;;;3.70;99.90;;;;;;5041434;28;20045;-86
2022/01/31 00:18:36;;;;;;;10.50;2.40;;;3.60;99.90;;;;;;5043561;28;20071;-85
2022/01/31 00:21:02;;;;;;;11.80;3.17;;;3.60;99.90;;;;;;5043060;28;20481;-85
2022/01/31 00:23:31;;;;;;;14.60;3.05;;;3.60;99.90;;;;;;5038925;28;20059;-86
2022/01/31 00:26:08;;;;;;;12.27;2.83;;;4.00;99.90;;;;;;5041156;28;20033;-82
2022/01/31 00:28:34;;;;;;;13.55;2.78;;;3.80;99.90;;;;;;5039793;28;20448;-86
2022/01/31 00:30:59;;;;;;;11.57;2.53;;;3.70;99.90;;;;;;5046279;28;20099;-85
2022/01/31 00:33:25;;;;;;;11.85;2.72;;;4.30;99.90;;;;;;5037092;28;20038;-85
2022/01/31 00:35:51;;;;;;;7.63;2.35;;;3.70;99.90;;;;;;5042926;28;20104;-85
2022/01/31 00:38:16;;;;;;;10.23;2.30;;;3.70;99.90;;;;;;5035974;28;20045;-85
2022/01/31 00:40:51;;;;;;;16.65;2.78;;;3.70;99.90;;;;;;5046434;28;20045;-86
2022/01/31 00:43:19;;;;;;;9.52;3.28;;;3.80;99.90;;;;;;5029923;28;20037;-84
2022/01/31 00:46:02;;;;;;;17.30;3.38;;;3.80;99.90;;;;;;5053633;28;20120;-86
2022/01/31 00:48:33;;;;;;;10.88;2.75;;;3.80;99.90;;;;;;5038454;28;20048;-84
2022/01/31 00:50:59;;;;;;;8.32;2.25;;;4.20;99.90;;;;;;5023471;28;20069;-86
2022/01/31 00:53:24;;;;;;;15.15;3.20;;;4.10;99.90;;;;;;5042853;28;20065;-85
2022/01/31 00:55:50;;;;;;;13.95;2.83;;;4.50;99.90;;;;;;5036618;28;20037;-85
2022/01/31 00:58:16;;;;;;;16.98;3.00;;;3.80;99.90;;;;;;5023671;28;20046;-85
2022/01/31 01:00:42;;;;;;;16.63;2.75;;;3.80;99.90;;;;;;5015689;28;20415;-85
2022/01/31 01:03:07;;;;;;;14.98;3.05;;;3.80;99.90;;;;;;5030141;28;20394;-85
2022/01/31 01:05:33;;;;;;;11.27;2.40;;;4.10;99.90;;;;;;5014600;28;20041;-86
2022/01/31 01:07:59;;;;;;;15.00;3.25;;;3.90;99.90;;;;;;5015793;28;20046;-85
2022/01/31 01:10:24;;;;;;;17.05;3.65;;;3.90;99.90;;;;;;5021295;28;20038;-83
2022/01/31 01:12:50;;;;;;;15.32;3.35;;;4.30;99.90;;;;;;5015296;28;20049;-84
2022/01/31 01:15:19;;;;;;;13.02;3.60;;;3.80;99.90;;;;;;5006615;28;20066;-85
2022/01/31 01:17:47;;;;;;;9.95;3.97;;;4.80;99.90;;;;;;4996397;28;20418;-83
2022/01/31 01:20:15;;;;;;;17.70;3.53;;;4.50;99.90;;;;;;5015015;28;20038;-83
2022/01/31 01:22:41;;;;;;;10.52;3.72;;;3.90;99.90;;;;;;4997632;28;20109;-81
2022/01/31 01:25:33;;;;;;;14.93;3.80;;;4.00;99.90;;;;;;5014314;28;20045;-84
2022/01/31 01:27:59;;;;;;;12.13;3.60;;;3.90;99.90;;;;;;5012167;28;20054;-83
2022/01/31 01:30:31;;;;;;;13.63;3.63;;;3.80;99.90;;;;;;4997449;28;20445;-84
2022/01/31 01:35:22;;;;;;;16.58;4.32;;;3.80;99.90;;;;;;5015048;28;20507;-81
2022/01/31 01:37:48;;;;;;;17.88;5.30;;;3.80;99.90;;;;;;5013778;28;20042;-83
2022/01/31 01:40:13;;;;;;;12.13;5.07;;;3.80;99.90;;;;;;5013914;28;20580;-84
2022/01/31 01:42:41;;;;;;;13.70;5.40;;;3.80;99.90;;;;;;4997023;28;20081;-84
2022/01/31 01:45:08;;;;;;;20.08;7.25;;;3.80;99.90;;;;;;4996607;28;20046;-83
2022/01/31 01:47:33;;;;;;;13.63;5.20;;;3.80;99.90;;;;;;5013930;28;20116;-83
2022/01/31 01:49:59;;;;;;;14.82;5.72;;;3.80;99.90;;;;;;5013789;28;20062;-81
2022/01/31 01:52:25;;;;;;;14.88;5.72;;;3.80;99.90;;;;;;4997399;28;20053;-81
2022/01/31 01:54:51;;;;;;;17.20;5.75;;;3.80;99.90;;;;;;4980098;28;20555;-82
2022/01/31 01:57:20;;;;;;;14.82;5.82;;;3.70;99.90;;;;;;5016969;28;20059;-80
2022/01/31 01:59:46;;;;;;;16.58;6.53;;;3.70;99.90;;;;;;5041270;28;20037;-84
2022/01/31 02:02:11;;;;;;;18.52;7.40;;;3.70;99.90;;;;;;5034333;28;20037;-84
2022/01/31 02:04:37;;;;;;;17.08;5.82;;;3.70;99.90;;;;;;5017182;28;20050;-81
2022/01/31 02:07:04;;;;;;;15.52;5.90;;;3.60;99.90;;;;;;5022637;28;20060;-81
2022/01/31 02:09:31;;;;;;;10.23;5.93;;;3.70;99.90;;;;;;5039265;28;20091;-83
2022/01/31 02:11:57;;;;;;;12.68;6.05;;;3.60;99.90;;;;;;5034787;28;20090;-82
2022/01/31 02:14:26;;;;;;;12.68;5.05;;;3.50;99.90;;;;;;5023192;28;20507;-81
2022/01/31 02:16:53;;;;;;;10.45;5.47;;;3.40;99.90;;;;;;5041231;28;20045;-79
2022/01/31 02:19:20;;;;;;;11.40;6.30;;;3.40;99.90;;;;;;5043810;28;20504;-80
2022/01/31 02:21:51;;;;;;;10.52;5.93;;;3.40;99.90;;;;;;5038686;28;20046;-81
2022/01/31 02:24:17;;;;;;;12.65;5.70;;;3.40;99.90;;;;;;5034243;28;20033;-80
2022/01/31 02:26:43;;;;;;;11.10;5.82;;;3.40;99.90;;;;;;5028641;28;20508;-82
2022/01/31 02:29:11;;;;;;;9.52;5.80;;;3.40;99.90;;;;;;5032829;28;20041;-84
2022/01/31 02:31:41;;;;;;;8.52;5.95;;;3.30;99.90;;;;;;5032997;28;20048;-84
2022/01/31 02:34:07;;;;;;;12.20;4.80;;;4.10;99.90;;;;;;5014934;28;20521;-81
2022/01/31 02:36:33;;;;;;;9.82;4.28;;;3.20;99.90;;;;;;5040762;28;20127;-82
2022/01/31 02:38:58;;;;;;;8.18;4.57;;;3.80;99.90;;;;;;5035560;28;20052;-84
2022/01/31 02:41:27;;;;;;;8.32;4.18;;;3.10;99.90;;;;;;5040956;28;20485;-81
2022/01/31 02:43:54;;;;;;;7.93;4.38;;;3.00;99.90;;;;;;5032670;28;20041;-81
2022/01/31 02:46:23;;;;;;;7.50;3.78;;;3.00;99.90;;;;;;5021991;28;20045;-85
2022/01/31 02:48:51;;;;;;;6.53;4.20;;;2.90;99.90;;;;;;5032379;28;20061;-81
2022/01/31 02:51:21;;;;;;;5.50;4.05;;;3.50;99.90;;;;;;5014690;28;20045;-81
2022/01/31 02:53:47;;;;;;;7.22;4.07;;;2.90;99.90;;;;;;5034343;28;20057;-85
2022/01/31 02:56:12;;;;;;;7.57;3.88;;;2.90;99.90;;;;;;5027393;28;20040;-83
2022/01/31 02:58:38;;;;;;;7.35;4.15;;;3.70;99.90;;;;;;5040785;28;20571;-85
2022/01/31 03:01:05;;;;;;;8.60;4.00;;;2.80;99.90;;;;;;5022345;28;20073;-88
2022/01/31 03:03:30;;;;;;;7.53;4.60;;;3.40;99.90;;;;;;5022295;28;20043;-83
2022/01/31 03:05:57;;;;;;;7.93;4.15;;;2.80;99.90;;;;;;5040430;28;20381;-86
2022/01/31 03:08:24;;;;;;;10.32;4.10;;;2.80;99.90;;;;;;5019329;28;20037;-87
2022/01/31 03:10:50;;;;;;;9.85;4.10;;;2.90;99.90;;;;;;5018207;28;20045;-87
2022/01/31 03:13:16;;;;;;;10.18;5.63;;;3.50;99.90;;;;;;5032160;28;20531;-87
2022/01/31 03:15:42;;;;;;;10.32;5.13;;;3.30;99.90;;;;;;5039355;28;20072;-86
2022/01/31 03:18:08;;;;;;;11.68;5.55;;;3.00;99.90;;;;;;5041632;28;20052;-87
2022/01/31 03:20:33;;;;;;;11.55;5.50;;;3.00;99.90;;;;;;5032060;28;20033;-86
2022/01/31 03:23:00;;;;;;;11.77;4.50;;;3.60;99.90;;;;;;5033193;28;20382;-86
2022/01/31 03:25:26;;;;;;;6.05;4.22;;;3.00;99.90;;;;;;5027729;28;20118;-86
2022/01/31 03:27:52;;;;;;;7.63;3.45;;;3.00;99.90;;;;;;5036653;28;20088;-86
2022/01/31 03:30:21;;;;;;;8.38;4.28;;;3.10;99.90;;;;;;5040376;28;20528;-85
2022/01/31 03:32:47;;;;;;;5.30;3.10;;;3.10;99.90;;;;;;5033384;28;20049;-86
2022/01/31 03:35:13;;;;;;;5.97;2.70;;;3.20;99.90;;;;;;5032220;28;20044;-84
2022/01/31 03:37:39;;;;;;;4.65;2.33;;;3.20;99.90;;;;;;5043770;28;20095;-85
2022/01/31 03:40:07;;;;;;;8.48;3.40;;;3.20;99.90;;;;;;5044542;28;20045;-86
2022/01/31 03:42:34;;;;;;;6.65;3.00;;;3.30;99.90;;;;;;5036154;28;20573;-87
2022/01/31 03:45:00;;;;;;;5.78;2.95;;;3.40;99.90;;;;;;5041415;28;20064;-86
2022/01/31 03:47:26;;;;;;;4.03;2.50;;;3.40;99.90;;;;;;5046545;28;20041;-86
2022/01/31 03:49:51;;;;;;;5.18;2.20;;;3.50;99.90;;;;;;5043950;28;20033;-86
2022/01/31 03:52:17;;;;;;;7.75;2.63;;;4.50;99.90;;;;;;5039572;28;20052;-87
2022/01/31 03:54:43;;;;;;;8.52;3.17;;;3.70;99.90;;;;;;5038454;28;20132;-87
2022/01/31 03:57:09;;;;;;;4.38;2.08;;;3.80;99.90;;;;;;5028875;28;20045;-86
2022/01/31 03:59:35;;;;;;;7.07;2.00;;;3.80;99.90;;;;;;5046532;28;20047;-83
2022/01/31 04:02:03;;;;;;;10.77;2.33;;;4.30;99.90;;;;;;5017391;28;20533;-86
2022/01/31 04:04:29;;;;;;;12.73;2.50;;;4.10;99.90;;;;;;5035606;28;20088;-87
2022/01/31 04:06:55;;;;;;;9.77;1.40;;;4.10;99.90;;;;;;5045948;28;20049;-88
2022/01/31 04:09:21;;;;;;;12.88;1.95;;;4.30;99.90;;;;;;5041814;28;20076;-87
2022/01/31 04:11:46;;;;;;;17.63;1.92;;;4.40;99.90;;;;;;5043100;28;20041;-87
2022/01/31 04:14:12;;;;;;;13.00;1.40;;;4.90;99.90;;;;;;5036264;28;20037;-87
2022/01/31 04:16:38;;;;;;;8.88;1.02;;;4.50;99.90;;;;;;5039439;28;20037;-85
2022/01/31 04:19:06;;;;;;;7.05;0.70;;;4.50;99.90;;;;;;5039250;28;20629;-85
2022/01/31 04:21:32;;;;;;;8.82;0.55;;;4.80;99.90;;;;;;5047357;28;20108;-88
2022/01/31 04:23:58;;;;;;;6.85;0.85;;;4.80;99.90;;;;;;5037724;28;20134;-88
2022/01/31 04:26:31;;;;;;;3.88;0.40;;;4.80;99.90;;;;;;5041981;28;20072;-86
2022/01/31 04:29:05;;;;;;;3.88;1.25;;;4.80;99.90;;;;;;5046365;28;20045;-87
2022/01/31 04:31:39;;;;;;;3.38;0.77;;;4.80;99.90;;;;;;5038186;28;20399;-88
2022/01/31 04:34:07;;;;;;;7.38;0.60;;;5.00;99.90;;;;;;5016736;28;20041;-85
2022/01/31 04:36:32;;;;;;;8.23;0.52;;;4.60;99.90;;;;;;5020579;28;20437;-87
2022/01/31 04:38:58;;;;;;;2.95;0.50;;;4.80;99.90;;;;;;5035537;28;20042;-87
2022/01/31 04:41:24;;;;;;;2.05;0.90;;;4.70;99.90;;;;;;5045848;28;20038;-86
2022/01/31 04:43:50;;;;;;;2.47;0.30;;;4.30;99.90;;;;;;5038599;28;20053;-86
2022/01/31 04:46:16;;;;;;;5.70;0.52;;;4.20;99.90;;;;;;5034931;28;20041;-87
2022/01/31 04:48:45;;;;;;;4.25;0.50;;;4.20;99.90;;;;;;5040916;28;20129;-87
2022/01/31 04:51:12;;;;;;;4.13;0.52;;;4.70;99.90;;;;;;5036190;28;20045;-86
2022/01/31 04:53:38;;;;;;;4.78;0.65;;;4.30;99.90;;;;;;5028668;28;20168;-88
2022/01/31 04:56:05;;;;;;;6.85;0.95;;;4.30;99.90;;;;;;5042352;28;20510;-87
2022/01/31 04:58:32;;;;;;;11.77;1.20;;;5.20;99.90;;;;;;5038297;28;20055;-87
2022/01/31 05:00:58;;;;;;;11.40;1.48;;;5.30;99.90;;;;;;5046121;28;20060;-83
2022/01/31 05:03:24;;;;;;;12.52;1.88;;;4.40;99.90;;;;;;5043524;28;20516;-84
2022/01/31 05:05:50;;;;;;;13.50;1.35;;;4.50;99.90;;;;;;5034341;28;20116;-87
2022/01/31 05:08:17;;;;;;;6.25;1.10;;;4.90;99.90;;;;;;5042000;28;20092;-86
2022/01/31 05:10:46;;;;;;;13.85;1.30;;;4.50;99.90;;;;;;5039115;28;20037;-88
2022/01/31 05:13:13;;;;;;;17.25;1.77;;;5.20;99.90;;;;;;5044968;28;20478;-83
2022/01/31 05:15:39;;;;;;;11.23;1.17;;;4.60;99.90;;;;;;5035034;28;20045;-85
2022/01/31 05:18:05;;;;;;;15.25;1.60;;;4.70;99.90;;;;;;5042212;28;20482;-87
2022/01/31 05:20:31;;;;;;;10.70;1.02;;;5.40;99.90;;;;;;5036484;28;20128;-88
2022/01/31 05:22:56;;;;;;;11.50;1.15;;;5.60;99.90;;;;;;5040702;28;20048;-86
2022/01/31 05:25:22;;;;;;;5.60;0.43;;;4.80;99.90;;;;;;5035989;28;20052;-86
2022/01/31 05:27:48;;;;;;;10.10;0.93;;;4.70;99.90;;;;;;5043173;28;20053;-83
2022/01/31 05:30:16;;;;;;;3.10;0.40;;;4.70;99.90;;;;;;5024211;28;20042;-86
2022/01/31 05:32:42;;;;;;;4.70;0.50;;;4.80;99.90;;;;;;5052763;28;20464;-85
2022/01/31 05:35:08;;;;;;;2.58;0.50;;;4.60;99.90;;;;;;5033901;28;20064;-83
2022/01/31 05:37:34;;;;;;;4.63;0.40;;;4.50;99.90;;;;;;5015329;28;20132;-81
2022/01/31 05:40:00;;;;;;;5.88;0.60;;;4.50;99.90;;;;;;5023998;28;20037;-84
2022/01/31 05:42:26;;;;;;;5.72;0.43;;;5.30;99.90;;;;;;5027195;28;20048;-85
2022/01/31 05:44:52;;;;;;;3.60;0.77;;;5.20;99.90;;;;;;5037522;28;20044;-86
2022/01/31 05:47:17;;;;;;;4.38;0.80;;;5.00;99.90;;;;;;5038981;28;20088;-86
2022/01/31 05:49:43;;;;;;;2.65;0.93;;;4.60;99.90;;;;;;5041615;28;20097;-87
2022/01/31 05:52:09;;;;;;;8.85;0.77;;;4.40;99.90;;;;;;5039066;28;20052;-86
2022/01/31 05:54:38;;;;;;;6.65;0.80;;;4.50;99.90;;;;;;5043672;28;20041;-86
2022/01/31 05:57:04;;;;;;;7.60;0.88;;;5.10;99.90;;;;;;5033962;28;20025;-87
2022/01/31 05:59:30;;;;;;;7.22;0.73;;;4.50;99.90;;;;;;5041451;28;20040;-86
2022/01/31 06:01:57;;;;;;;7.32;1.00;;;5.30;99.90;;;;;;5044219;28;20494;-87
2022/01/31 06:04:24;;;;;;;7.18;0.70;;;5.10;99.90;;;;;;5044558;28;20056;-87
2022/01/31 06:06:50;;;;;;;4.32;0.52;;;4.50;99.90;;;;;;5035376;28;20041;-85
2022/01/31 06:09:16;;;;;;;6.72;0.50;;;4.40;99.90;;;;;;5038606;28;20171;-87
2022/01/31 06:11:42;;;;;;;7.93;0.82;;;5.30;99.90;;;;;;5035072;28;20041;-83
2022/01/31 06:14:09;;;;;;;8.38;0.85;;;4.40;99.90;;;;;;5041323;28;20041;-86
2022/01/31 06:16:35;;;;;;;4.63;0.43;;;4.50;99.90;;;;;;5041876;28;20052;-83
2022/01/31 06:19:01;;;;;;;3.03;0.60;;;4.40;99.90;;;;;;5033450;28;20033;-86
2022/01/31 06:21:27;;;;;;;3.75;0.65;;;4.40;99.90;;;;;;5043943;28;20044;-92
2022/01/31 06:23:53;;;;;;;6.18;0.60;;;5.00;99.90;;;;;;5024183;28;20040;-93
2022/01/31 06:26:20;;;;;;;5.53;0.50;;;4.40;99.90;;;;;;5037317;28;20120;-86
2022/01/31 06:28:48;;;;;;;5.10;0.70;;;4.40;99.90;;;;;;5022802;28;20096;-88
2022/01/31 06:31:13;;;;;;;7.32;0.55;;;5.30;99.90;;;;;;5015529;28;20038;-87
2022/01/31 06:33:39;;;;;;;2.72;0.40;;;4.40;99.90;;;;;;5040967;28;20523;-87
2022/01/31 06:36:05;;;;;;;4.63;0.63;;;4.40;99.90;;;;;;5032674;28;20565;-86
2022/01/31 06:38:31;;;;;;;4.38;0.40;;;4.30;99.90;;;;;;5014948;28;20045;-87
2022/01/31 06:40:57;;;;;;;5.63;0.82;;;4.30;99.90;;;;;;5041536;28;20048;-88
2022/01/31 06:43:23;;;;;;;7.20;0.60;;;4.30;99.90;;;;;;5043993;28;20486;-88
2022/01/31 06:45:49;;;;;;;3.85;0.40;;;4.30;99.90;;;;;;5044433;28;20068;-87
2022/01/31 06:48:15;;;;;;;2.05;0.35;;;4.20;99.90;;;;;;5021307;28;20041;-88
2022/01/31 06:50:41;;;;;;;2.90;0.35;;;4.30;99.90;;;;;;5020913;28;20120;-86
2022/01/31 06:53:06;;;;;;;3.63;0.70;;;4.20;99.90;;;;;;5042129;28;20056;-86
2022/01/31 06:55:34;;;;;;;4.53;0.40;;;4.30;99.90;;;;;;5037476;28;20037;-85
2022/01/31 06:58:02;;;;;;;4.13;0.47;;;4.30;99.90;;;;;;5025544;28;20060;-85
2022/01/31 07:00:28;;;;;;;1.38;0.40;;;4.30;99.90;;;;;;5012972;28;20143;-88
2022/01/31 07:03:00;;;;;;;1.77;0.50;;;4.30;99.90;;;;;;5012723;28;20101;-87
2022/01/31 07:05:26;;;;;;;6.55;0.40;;;4.30;99.90;;;;;;5012826;28;20123;-88
2022/01/31 07:07:51;;;;;;;5.20;0.73;;;5.20;99.90;;;;;;5013826;28;20042;-86
2022/01/31 07:10:17;;;;;;;2.65;0.40;;;5.10;99.90;;;;;;5012357;28;20044;-85
2022/01/31 07:12:51;;;;;;;5.20;0.40;;;4.30;99.90;;;;;;5020623;28;20046;-86
2022/01/31 07:15:17;;;;;;;6.15;0.68;;;5.10;99.90;;;;;;5016942;28;20056;-87
2022/01/31 07:17:44;;;;;;;2.92;0.30;;;4.30;99.90;;;;;;5017883;28;20173;-87
2022/01/31 07:20:19;;;;;;;1.85;0.40;;;4.30;99.90;;;;;;5017063;28;20144;-86
2022/01/31 07:22:50;;;;;;;6.00;0.73;;;4.30;99.90;;;;;;5008267;28;20462;-82
2022/01/31 07:25:32;;;;;;;3.65;0.40;;;5.30;99.90;;;;;;5016263;28;20071;-86
2022/01/31 07:27:57;;;;;;;2.55;0.50;;;4.80;99.90;;;;;;5023856;28;20049;-79
2022/01/31 07:30:23;;;;;;;2.13;0.50;;;4.40;99.90;;;;;;5017275;28;20394;-82
2022/01/31 07:32:49;;;;;;;5.80;1.25;;;4.40;99.90;;;;;;5016514;28;20092;-86
2022/01/31 07:35:15;;;;;;;3.60;0.43;;;4.50;99.90;;;;;;5025070;28;20082;-82
2022/01/31 07:37:41;;;;;;;4.30;0.65;;;5.10;99.90;;;;;;5017459;28;20088;-80
2022/01/31 07:40:07;;;;;;;1.63;0.70;;;5.20;99.90;;;;;;4983129;28;20049;-81
2022/01/31 07:42:33;;;;;;;6.30;0.85;;;4.40;99.90;;;;;;4998510;28;20064;-81
2022/01/31 07:45:00;;;;;;;1.67;0.30;;;4.40;99.90;;;;;;4999613;28;20077;-85
2022/01/31 07:47:25;;;;;;;4.80;0.40;;;4.40;99.90;;;;;;4994222;28;20089;-85
2022/01/31 07:49:53;;;;;;;3.90;0.40;;;5.50;99.90;;;;;;5015836;28;20049;-82
2022/01/31 07:52:19;;;;;;;2.85;0.40;;;5.30;99.90;;;;;;4998028;28;20545;-85
2022/01/31 07:54:45;;;;;;;2.70;0.43;;;4.70;99.90;;;;;;5000381;28;20041;-84
2022/01/31 07:57:10;;;;;;;3.42;0.30;;;4.00;99.90;;;;;;5019449;28;20104;-85
2022/01/31 07:59:36;;;;;;;5.40;0.60;;;4.90;99.90;;;;;;5017569;28;20544;-84
2022/01/31 08:02:02;;;;;;;4.07;0.50;;;4.50;99.90;;;;;;5041402;28;20045;-83
2022/01/31 08:04:28;;;;;;;2.40;0.40;;;4.40;99.90;;;;;;5020182;28;20045;-82
2022/01/31 08:06:54;;;;;;;5.25;0.50;;;4.40;99.90;;;;;;5040139;28;20048;-82
2022/01/31 08:09:19;;;;;;;4.65;0.45;;;4.40;99.90;;;;;;5046692;28;20048;-82
2022/01/31 08:11:45;;;;;;;1.33;0.30;;;4.80;99.90;;;;;;5043061;28;20041;-82
2022/01/31 08:14:13;;;;;;;3.88;0.40;;;5.40;99.90;;;;;;5025515;28;20155;-87
2022/01/31 08:16:39;;;;;;;2.90;0.60;;;4.60;99.90;;;;;;5035962;28;20056;-83
2022/01/31 08:19:08;;;;;;;1.85;0.47;;;5.20;99.90;;;;;;5041101;28;20045;-83
2022/01/31 08:21:37;;;;;;;6.18;0.68;;;4.50;99.90;;;;;;5037686;28;20061;-84
2022/01/31 08:24:03;;;;;;;6.30;1.10;;;4.50;99.90;;;;;;5023301;28;20046;-88
2022/01/31 08:26:30;;;;;;;11.27;0.90;;;4.60;99.90;;;;;;5034135;28;20045;-82
2022/01/31 08:29:03;;;;;;;7.00;0.90;;;4.80;99.90;;;;;;5027569;28;20049;-84
2022/01/31 08:31:34;;;;;;;8.57;1.25;;;4.70;99.90;;;;;;5044630;28;20037;-82
2022/01/31 08:36:30;;;;;;;9.77;1.02;;;5.30;99.90;;;;;;5034821;28;20528;-82
2022/01/31 08:38:56;;;;;;;5.70;0.60;;;5.50;99.90;;;;;;5017574;28;20056;-82
2022/01/31 08:41:24;;;;;;;4.85;0.70;;;5.90;99.90;;;;;;5028015;28;20037;-84
2022/01/31 08:43:50;;;;;;;5.22;1.25;;;4.50;99.90;;;;;;5016995;28;20092;-82
2022/01/31 08:46:17;;;;;;;11.13;0.80;;;6.20;99.90;;;;;;5044191;28;20040;-84
2022/01/31 08:48:43;;;;;;;9.88;0.65;;;6.10;99.90;;;;;;5049482;28;20390;-83
2022/01/31 08:51:10;;;;;;;15.57;1.23;;;5.20;99.90;;;;;;5041625;28;20065;-84
2022/01/31 08:53:37;;;;;;;9.63;1.10;;;5.70;99.90;;;;;;5036751;28;20478;-85
2022/01/31 08:56:06;;;;;;;8.63;1.02;;;5.40;99.90;;;;;;5041922;28;20060;-81
2022/01/31 08:58:33;;;;;;;9.57;0.93;;;5.40;99.90;;;;;;5032162;28;20053;-87
2022/01/31 09:01:04;;;;;;;8.88;1.00;;;5.40;99.90;;;;;;5042423;28;20045;-88
2022/01/31 09:06:06;;;;;;;;;;;5.50;99.90;;;;;;5043769;28;20041;-82
2022/01/31 09:08:32;;;;;;;;;;;5.50;99.90;;;;;;5044333;28;20345;-86
2022/01/31 09:10:57;;;;;;;7.10;0.82;;;4.90;99.90;;;;;;5026246;28;19956;-87
2022/01/31 09:13:24;;;;;;;6.15;1.08;;;5.80;99.90;;;;;;5040705;28;20037;-88
2022/01/31 09:16:14;;;;;;;2.42;0.60;;;6.40;99.90;;;;;;5044526;28;20041;-89
2022/01/31 09:18:40;;;;;;;12.25;1.17;;;6.00;99.90;;;;;;5028694;23;20124;-82
2022/01/31 09:21:06;;;;;;;6.57;0.60;;;6.10;99.90;;;;;;5014474;28;20457;-82
2022/01/31 09:23:32;;;;;;;4.68;0.60;;;6.30;99.90;;;;;;5027686;28;20046;-83
2022/01/31 09:25:58;;;;;;;4.32;0.60;;;6.30;99.90;;;;;;5016475;28;20041;-82
2022/01/31 09:28:25;;;;;;;3.78;1.10;;;5.90;99.90;;;;;;5034399;28;20076;-82
2022/01/31 09:30:52;;;;;;;6.20;0.43;;;6.00;99.90;;;;;;5034298;28;20037;-82
2022/01/31 09:33:19;;;;;;;2.83;0.30;;;6.60;99.90;;;;;;5034070;28;20049;-82
2022/01/31 09:35:45;;;;;;;7.40;0.60;;;6.80;99.90;;;;;;5016336;28;20045;-83
2022/01/31 09:38:13;;;;;;;8.48;0.90;;;7.10;99.90;;;;;;5015900;28;20045;-82
2022/01/31 09:40:40;;;;;;;2.47;0.55;;;6.40;99.90;;;;;;5016266;28;20502;-82
2022/01/31 09:48:35;;;;;;;5.07;0.63;;;7.50;99.90;;;;;;5033801;28;20049;-82
2022/01/31 09:51:07;;;;;;;5.82;1.25;;;6.60;99.90;;;;;;5033654;28;20485;-82
2022/01/31 09:53:39;;;;;;;4.18;0.47;;;6.60;99.90;;;;;;5016239;28;20414;-83
2022/01/31 09:56:09;;;;;;;9.43;0.70;;;6.90;99.90;;;;;;5033702;28;20483;-82
2022/01/31 09:58:35;;;;;;;10.13;0.88;;;7.00;99.90;;;;;;5015890;28;20046;-82
2022/01/31 10:01:16;;;;;;;5.82;0.77;;;6.70;99.90;;;;;;5033906;28;20414;-81
2022/01/31 10:03:58;;;;;;;6.47;0.93;;;6.80;99.90;;;;;;5016033;28;20057;-82
2022/01/31 10:06:28;;;;;;;7.78;1.13;;;6.80;99.90;;;;;;5033420;28;20538;-82
2022/01/31 10:09:17;;;;;;;6.93;1.30;;;6.90;99.90;;;;;;5015682;28;20041;-82
2022/01/31 10:11:57;;;;;;;6.28;0.90;;;7.30;99.90;;;;;;5033676;28;20049;-82
2022/01/31 10:17:34;;;;;;;10.02;0.70;;;8.30;99.90;;;;;;5032947;28;20417;-83
2022/01/31 10:20:04;;;;;;;8.15;1.10;;;7.20;99.90;;;;;;5015252;28;20046;-82
2022/01/31 10:22:33;;;;;;;4.43;0.50;;;7.70;99.90;;;;;;5033236;28;20037;-82
2022/01/31 10:25:02;;;;;;;12.23;0.80;;;7.60;99.90;;;;;;5033118;28;20037;-82
2022/01/31 10:27:34;;;;;;;11.15;1.55;;;8.10;99.90;;;;;;5033086;28;20041;-82
2022/01/31 10:30:09;;;;;;;7.88;1.02;;;8.00;99.90;;;;;;5015136;28;20504;-83
2022/01/31 10:32:37;;;;;;;7.07;0.85;;;7.40;99.90;;;;;;5033176;28;20052;-83
2022/01/31 10:35:06;;;;;;;14.13;1.20;;;7.30;99.90;;;;;;5015362;28;20080;-86
2022/01/31 10:37:34;;;;;;;8.65;1.67;;;7.30;99.90;;;;;;5015268;28;20081;-85
2022/01/31 10:54:25;;;;;;;5.57;0.80;;;7.90;99.90;;;;;;5032832;28;20053;-83
2022/01/31 10:57:14;;;;;;;9.43;0.90;;;8.00;99.90;;;;;;5032734;28;20033;-82
2022/01/31 10:59:43;;;;;;;15.75;1.40;;;7.80;99.90;;;;;;4993451;28;20053;-82
2022/01/31 11:02:20;;;;;;;12.38;1.25;;;8.30;99.90;;;;;;5015227;28;20425;-85
2022/01/31 11:04:47;;;;;;;12.02;1.33;;;7.90;99.90;;;;;;5032815;28;20128;-85
2022/01/31 11:07:16;;;;;;;15.02;1.20;;;8.80;99.90;;;;;;5032842;28;20052;-86
2022/01/31 11:09:42;;;;;;;12.05;2.70;;;8.40;99.90;;;;;;5014764;28;20517;-82
2022/01/31 11:12:10;;;;;;;8.48;1.33;;;7.50;99.90;;;;;;5032587;28;20085;-84
2022/01/31 11:14:37;;;;;;;13.75;1.15;;;8.00;99.90;;;;;;5014949;28;20096;-82
2022/01/31 11:17:11;;;;;;;9.13;1.27;;;8.00;99.90;;;;;;5032242;28;20061;-82
2022/01/31 11:19:41;;;;;;;9.07;1.10;;;8.20;99.90;;;;;;5032554;28;20042;-83
2022/01/31 11:22:11;;;;;;;10.90;1.05;;;8.00;99.90;;;;;;5014857;28;20053;-83
2022/01/31 11:24:43;;;;;;;8.80;1.25;;;8.70;99.90;;;;;;5014487;28;20057;-83
2022/01/31 11:27:24;;;;;;;12.50;1.30;;;8.50;99.90;;;;;;5014838;28;20045;-83
2022/01/31 11:29:55;;;;;;;11.32;0.93;;;8.20;99.90;;;;;;5015012;28;20057;-83
2022/01/31 11:32:24;;;;;;;13.43;1.45;;;8.20;99.90;;;;;;5032356;28;20041;-83
2022/01/31 11:34:49;;;;;;;13.45;1.30;;;8.20;99.90;;;;;;5015008;28;20052;-83
2022/01/31 11:37:18;;;;;;;11.63;1.15;;;8.40;99.90;;;;;;5032228;28;20390;-82
2022/01/31 11:39:47;;;;;;;14.70;1.27;;;8.90;99.90;;;;;;5032671;28;20037;-82
2022/01/31 11:42:13;;;;;;;9.80;1.05;;;8.80;99.90;;;;;;5032522;28;20064;-82
2022/01/31 11:44:48;;;;;;;9.65;1.35;;;8.90;99.90;;;;;;5032484;28;20060;-82
2022/01/31 11:47:19;;;;;;;10.07;1.85;;;9.40;99.90;;;;;;5014421;28;20046;-83
2022/01/31 11:49:54;;;;;;;9.63;1.20;;;8.50;99.90;;;;;;5032263;28;20095;-83
2022/01/31 11:52:21;;;;;;;8.73;1.20;;;8.50;99.90;;;;;;5014886;28;20041;-82
2022/01/31 11:55:02;;;;;;;15.07;2.42;;;9.10;99.90;;;;;;5032260;28;20048;-83
2022/01/31 11:57:37;;;;;;;17.48;2.83;;;8.60;99.90;;;;;;5032003;28;20502;-82
2022/01/31 12:00:13;;;;;;;10.80;1.63;;;9.20;99.90;;;;;;5014416;28;20053;-84
2022/01/31 12:02:46;;;;;;;19.63;1.58;;;8.70;99.90;;;;;;5035809;28;20391;-83
2022/01/31 12:05:24;;;;;;;9.63;1.13;;;8.80;99.90;;;;;;5018255;28;20049;-82
2022/01/31 12:08:06;;;;;;;5.38;1.35;;;8.90;99.90;;;;;;5035790;28;20449;-83
2022/01/31 12:10:39;;;;;;;7.70;1.30;;;8.90;99.90;;;;;;5035684;28;20054;-82
2022/01/31 12:13:27;;;;;;;9.32;1.38;;;9.10;99.90;;;;;;5018409;28;20500;-83
2022/01/31 12:16:01;;;;;;;14.25;1.55;;;8.80;99.90;;;;;;5017664;28;20092;-83
2022/01/31 12:18:48;;;;;;;14.43;1.67;;;8.60;99.90;;;;;;5017560;28;20053;-83
2022/01/31 12:24:05;;;;;;;15.73;1.33;;;9.60;99.90;;;;;;5035500;28;20104;-84
2022/01/31 12:26:30;;;;;;;11.73;1.70;;;8.70;99.90;;;;;;5035434;28;20073;-84
2022/01/31 12:29:10;;;;;;;18.20;1.75;;;9.40;99.90;;;;;;5035384;28;20450;-83
2022/01/31 12:31:37;;;;;;;17.08;3.13;;;8.70;99.90;;;;;;5035237;28;20478;-85
2022/01/31 12:34:19;;;;;;;10.48;1.08;;;9.50;99.90;;;;;;5035397;28;20052;-83
2022/01/31 12:36:45;;;;;;;15.95;1.35;;;8.80;99.90;;;;;;5001563;28;20554;-84
2022/01/31 12:39:36;;;;;;;19.20;2.25;;;8.90;99.90;;;;;;5017635;28;20136;-83
2022/01/31 12:45:21;;;;;;;13.18;1.70;;;9.10;99.90;;;;;;5035022;28;20060;-84
2022/01/31 12:48:08;;;;;;;11.07;1.08;;;9.00;99.90;;;;;;5034987;28;20120;-83
2022/01/31 12:50:58;;;;;;;10.30;1.30;;;8.90;99.90;;;;;;5034760;28;20501;-85
2022/01/31 12:53:39;;;;;;;13.75;1.55;;;9.30;99.90;;;;;;4995939;28;20046;-85
2022/01/31 12:56:21;;;;;;;15.32;1.60;;;9.40;99.90;;;;;;5017094;28;20063;-84
2022/01/31 12:58:53;;;;;;;10.50;1.15;;;9.10;99.90;;;;;;5017064;28;20056;-85
2022/01/31 13:01:21;;;;;;;20.17;2.35;;;9.70;99.90;;;;;;5034531;28;20144;-83
2022/01/31 13:04:29;;;;;;;9.63;1.10;;;9.00;99.90;;;;;;5034576;28;20092;-84
2022/01/31 13:06:59;;;;;;;18.45;1.23;;;8.40;99.90;;;;;;4993143;28;20056;-84
2022/01/31 13:09:27;;;;;;;16.10;1.38;;;8.60;99.90;;;;;;4976903;28;20077;-83
2022/01/31 13:11:56;;;;;;;12.73;1.92;;;9.20;99.90;;;;;;4992845;28;20388;-85
2022/01/31 13:14:45;;;;;;;18.15;2.53;;;9.10;99.90;;;;;;4976461;28;20050;-83
2022/01/31 13:17:15;;;;;;;8.07;1.00;;;8.60;99.90;;;;;;4992822;28;20065;-84
2022/01/31 13:19:48;;;;;;;10.88;1.27;;;8.50;99.90;;;;;;4977029;28;20047;-83
2022/01/31 13:22:18;;;;;;;21.00;1.95;;;8.50;99.90;;;;;;4992788;28;20494;-84
2022/01/31 13:24:47;;;;;;;15.18;1.05;;;8.40;99.90;;;;;;4992780;28;20072;-81
2022/01/31 13:27:18;;;;;;;15.68;1.40;;;8.70;99.90;;;;;;4992900;28;20073;-84
2022/01/31 13:29:47;;;;;;;9.13;1.52;;;8.50;99.90;;;;;;4992804;28;20054;-83
2022/01/31 13:32:33;;;;;;;18.02;2.60;;;8.80;99.90;;;;;;4976754;28;20062;-84
2022/01/31 13:35:03;;;;;;;15.38;1.80;;;8.70;99.90;;;;;;4976155;28;20050;-85
2022/01/31 13:37:30;;;;;;;20.90;1.25;;;8.90;99.90;;;;;;5011562;28;20491;-83